sensor_id;sensor_type;location;lat;lon;timestamp;P1;durP1;ratioP1;P2;durP2;ratioP2
65063;SDS011;51654;51.452;6.644;2023-08-08T00:01:07;1.83;;;1.73;;
65063;SDS011;51654;51.452;6.644;2023-08-08T00:03:35;2.00;;;1.73;;
65063;SDS011;51654;51.452;6.644;2023-08-08T00:06:03;1.87;;;1.77;;
65063;SDS011;51654;51.452;6.644;2023-08-08T00:08:30;4.47;;;2.00;;
65063;SDS011;51654;51.452;6.644;2023-08-08T00:10:57;3.03;;;1.80;;
65063;SDS011;51654;51.452;6.644;2023-08-08T00:13:25;3.33;;;1.87;;
65063;SDS011;51654;51.452;6.644;2023-08-08T00:15:52;8.23;;;1.53;;
65063;SDS011;51654;51.452;6.644;2023-08-08T00:18:19;1.17;;;1.17;;
65063;SDS011;51654;51.452;6.644;2023-08-08T00:20:47;2.30;;;1.60;;
65063;SDS011;51654;51.452;6.644;2023-08-08T00:23:14;1.50;;;1.50;;
65063;SDS011;51654;51.452;6.644;2023-08-08T00:25:41;6.70;;;1.37;;
65063;SDS011;51654;51.452;6.644;2023-08-08T00:28:09;2.07;;;1.97;;
65063;SDS011;51654;51.452;6.644;2023-08-08T00:30:36;1.47;;;1.47;;
65063;SDS011;51654;51.452;6.644;2023-08-08T00:33:04;10.97;;;2.00;;
65063;SDS011;51654;51.452;6.644;2023-08-08T00:35:31;2.07;;;1.83;;
65063;SDS011;51654;51.452;6.644;2023-08-08T00:37:59;6.47;;;1.80;;
65063;SDS011;51654;51.452;6.644;2023-08-08T00:40:26;1.83;;;1.73;;
65063;SDS011;51654;51.452;6.644;2023-08-08T00:42:53;1.70;;;1.70;;
65063;SDS011;51654;51.452;6.644;2023-08-08T00:45:21;1.93;;;1.83;;
65063;SDS011;51654;51.452;6.644;2023-08-08T00:47:48;2.20;;;2.07;;
65063;SDS011;51654;51.452;6.644;2023-08-08T00:50:16;2.33;;;2.23;;
65063;SDS011;51654;51.452;6.644;2023-08-08T00:52:44;2.93;;;2.60;;
65063;SDS011;51654;51.452;6.644;2023-08-08T00:55:12;1.50;;;1.50;;
65063;SDS011;51654;51.452;6.644;2023-08-08T00:57:41;1.70;;;1.70;;
65063;SDS011;51654;51.452;6.644;2023-08-08T01:00:08;2.50;;;1.93;;
65063;SDS011;51654;51.452;6.644;2023-08-08T01:02:37;6.27;;;2.30;;
65063;SDS011;51654;51.452;6.644;2023-08-08T01:05:04;2.53;;;2.00;;
65063;SDS011;51654;51.452;6.644;2023-08-08T01:07:34;1.90;;;1.80;;
65063;SDS011;51654;51.452;6.644;2023-08-08T01:10:05;4.00;;;1.87;;
65063;SDS011;51654;51.452;6.644;2023-08-08T01:12:37;2.13;;;1.70;;
65063;SDS011;51654;51.452;6.644;2023-08-08T01:15:05;1.97;;;1.87;;
65063;SDS011;51654;51.452;6.644;2023-08-08T01:17:35;1.90;;;1.83;;
65063;SDS011;51654;51.452;6.644;2023-08-08T01:20:04;1.83;;;1.70;;
65063;SDS011;51654;51.452;6.644;2023-08-08T01:22:35;1.70;;;1.60;;
65063;SDS011;51654;51.452;6.644;2023-08-08T01:25:03;1.90;;;1.80;;
65063;SDS011;51654;51.452;6.644;2023-08-08T01:27:31;4.67;;;1.70;;
65063;SDS011;51654;51.452;6.644;2023-08-08T01:29:58;1.73;;;1.73;;
65063;SDS011;51654;51.452;6.644;2023-08-08T01:32:26;6.30;;;1.60;;
65063;SDS011;51654;51.452;6.644;2023-08-08T01:34:53;2.40;;;2.30;;
65063;SDS011;51654;51.452;6.644;2023-08-08T01:37:22;3.97;;;1.90;;
65063;SDS011;51654;51.452;6.644;2023-08-08T01:39:52;6.10;;;2.50;;
65063;SDS011;51654;51.452;6.644;2023-08-08T01:42:21;2.00;;;1.87;;
65063;SDS011;51654;51.452;6.644;2023-08-08T01:44:50;6.20;;;2.53;;
65063;SDS011;51654;51.452;6.644;2023-08-08T01:47:17;5.27;;;3.40;;
65063;SDS011;51654;51.452;6.644;2023-08-08T01:49:44;1.77;;;1.77;;
65063;SDS011;51654;51.452;6.644;2023-08-08T01:52:12;2.00;;;2.00;;
65063;SDS011;51654;51.452;6.644;2023-08-08T01:54:39;2.00;;;1.90;;
65063;SDS011;51654;51.452;6.644;2023-08-08T01:57:08;2.47;;;2.00;;
65063;SDS011;51654;51.452;6.644;2023-08-08T01:59:36;4.03;;;2.37;;
65063;SDS011;51654;51.452;6.644;2023-08-08T02:02:03;2.67;;;2.33;;
65063;SDS011;51654;51.452;6.644;2023-08-08T02:04:31;3.07;;;2.13;;
65063;SDS011;51654;51.452;6.644;2023-08-08T02:06:59;4.60;;;2.33;;
65063;SDS011;51654;51.452;6.644;2023-08-08T02:09:26;2.23;;;1.90;;
65063;SDS011;51654;51.452;6.644;2023-08-08T02:11:54;2.03;;;1.93;;
65063;SDS011;51654;51.452;6.644;2023-08-08T02:14:22;2.20;;;2.10;;
65063;SDS011;51654;51.452;6.644;2023-08-08T02:16:50;1.80;;;1.80;;
65063;SDS011;51654;51.452;6.644;2023-08-08T02:19:17;10.33;;;2.50;;
65063;SDS011;51654;51.452;6.644;2023-08-08T02:21:44;2.10;;;1.90;;
65063;SDS011;51654;51.452;6.644;2023-08-08T02:24:12;2.27;;;2.07;;
65063;SDS011;51654;51.452;6.644;2023-08-08T02:26:40;1.90;;;1.70;;
65063;SDS011;51654;51.452;6.644;2023-08-08T02:29:07;1.93;;;1.83;;
65063;SDS011;51654;51.452;6.644;2023-08-08T02:31:35;12.20;;;2.17;;
65063;SDS011;51654;51.452;6.644;2023-08-08T02:34:02;5.27;;;2.00;;
65063;SDS011;51654;51.452;6.644;2023-08-08T02:36:29;2.83;;;2.37;;
65063;SDS011;51654;51.452;6.644;2023-08-08T02:38:57;2.00;;;1.77;;
65063;SDS011;51654;51.452;6.644;2023-08-08T02:41:24;8.37;;;2.60;;
65063;SDS011;51654;51.452;6.644;2023-08-08T02:43:51;5.77;;;2.20;;
65063;SDS011;51654;51.452;6.644;2023-08-08T02:46:19;1.70;;;1.60;;
65063;SDS011;51654;51.452;6.644;2023-08-08T02:48:46;3.33;;;1.93;;
65063;SDS011;51654;51.452;6.644;2023-08-08T02:51:14;2.57;;;2.00;;
65063;SDS011;51654;51.452;6.644;2023-08-08T02:53:41;1.90;;;1.80;;
65063;SDS011;51654;51.452;6.644;2023-08-08T02:56:09;5.77;;;2.07;;
65063;SDS011;51654;51.452;6.644;2023-08-08T02:58:40;4.30;;;2.07;;
65063;SDS011;51654;51.452;6.644;2023-08-08T03:01:07;5.40;;;2.23;;
65063;SDS011;51654;51.452;6.644;2023-08-08T03:03:36;4.60;;;2.17;;
65063;SDS011;51654;51.452;6.644;2023-08-08T03:06:03;4.73;;;2.27;;
65063;SDS011;51654;51.452;6.644;2023-08-08T03:08:31;2.20;;;2.00;;
65063;SDS011;51654;51.452;6.644;2023-08-08T03:10:59;6.53;;;2.70;;
65063;SDS011;51654;51.452;6.644;2023-08-08T03:13:27;2.17;;;1.70;;
65063;SDS011;51654;51.452;6.644;2023-08-08T03:15:55;6.00;;;2.50;;
65063;SDS011;51654;51.452;6.644;2023-08-08T03:18:23;4.13;;;2.07;;
65063;SDS011;51654;51.452;6.644;2023-08-08T03:20:52;5.93;;;2.43;;
65063;SDS011;51654;51.452;6.644;2023-08-08T03:23:21;5.03;;;1.77;;
65063;SDS011;51654;51.452;6.644;2023-08-08T03:25:51;10.20;;;2.40;;
65063;SDS011;51654;51.452;6.644;2023-08-08T03:28:18;1.50;;;1.50;;
65063;SDS011;51654;51.452;6.644;2023-08-08T03:30:46;4.80;;;2.17;;
65063;SDS011;51654;51.452;6.644;2023-08-08T03:33:13;2.87;;;2.00;;
65063;SDS011;51654;51.452;6.644;2023-08-08T03:35:41;4.20;;;2.30;;
65063;SDS011;51654;51.452;6.644;2023-08-08T03:38:11;3.80;;;2.03;;
65063;SDS011;51654;51.452;6.644;2023-08-08T03:40:38;4.00;;;2.20;;
65063;SDS011;51654;51.452;6.644;2023-08-08T03:43:06;2.93;;;2.60;;
65063;SDS011;51654;51.452;6.644;2023-08-08T03:45:34;2.17;;;1.97;;
65063;SDS011;51654;51.452;6.644;2023-08-08T03:48:01;5.53;;;2.17;;
65063;SDS011;51654;51.452;6.644;2023-08-08T03:50:29;4.63;;;3.27;;
65063;SDS011;51654;51.452;6.644;2023-08-08T03:52:56;7.93;;;2.43;;
65063;SDS011;51654;51.452;6.644;2023-08-08T03:55:24;8.43;;;3.50;;
65063;SDS011;51654;51.452;6.644;2023-08-08T03:57:51;3.40;;;3.10;;
65063;SDS011;51654;51.452;6.644;2023-08-08T04:00:19;4.33;;;2.80;;
65063;SDS011;51654;51.452;6.644;2023-08-08T04:02:47;8.53;;;3.33;;
65063;SDS011;51654;51.452;6.644;2023-08-08T04:05:17;2.47;;;2.27;;
65063;SDS011;51654;51.452;6.644;2023-08-08T04:07:44;3.17;;;2.70;;
65063;SDS011;51654;51.452;6.644;2023-08-08T04:10:11;5.63;;;3.43;;
65063;SDS011;51654;51.452;6.644;2023-08-08T04:12:39;2.97;;;2.63;;
65063;SDS011;51654;51.452;6.644;2023-08-08T04:15:07;2.80;;;2.67;;
65063;SDS011;51654;51.452;6.644;2023-08-08T04:17:35;3.63;;;2.27;;
65063;SDS011;51654;51.452;6.644;2023-08-08T04:20:03;3.60;;;3.13;;
65063;SDS011;51654;51.452;6.644;2023-08-08T04:22:32;3.20;;;2.90;;
65063;SDS011;51654;51.452;6.644;2023-08-08T04:24:59;4.53;;;2.53;;
65063;SDS011;51654;51.452;6.644;2023-08-08T04:27:26;9.40;;;3.77;;
65063;SDS011;51654;51.452;6.644;2023-08-08T04:29:54;5.20;;;3.37;;
65063;SDS011;51654;51.452;6.644;2023-08-08T04:32:21;2.73;;;2.60;;
65063;SDS011;51654;51.452;6.644;2023-08-08T04:34:48;10.47;;;3.47;;
65063;SDS011;51654;51.452;6.644;2023-08-08T04:37:16;3.63;;;3.20;;
65063;SDS011;51654;51.452;6.644;2023-08-08T04:39:43;6.63;;;3.27;;
65063;SDS011;51654;51.452;6.644;2023-08-08T04:42:10;3.67;;;3.03;;
65063;SDS011;51654;51.452;6.644;2023-08-08T04:44:38;3.20;;;2.90;;
65063;SDS011;51654;51.452;6.644;2023-08-08T04:47:05;7.10;;;3.17;;
65063;SDS011;51654;51.452;6.644;2023-08-08T04:49:32;4.63;;;3.03;;
65063;SDS011;51654;51.452;6.644;2023-08-08T04:52:00;3.33;;;2.93;;
65063;SDS011;51654;51.452;6.644;2023-08-08T04:54:28;2.83;;;2.50;;
65063;SDS011;51654;51.452;6.644;2023-08-08T04:56:56;10.83;;;3.47;;
65063;SDS011;51654;51.452;6.644;2023-08-08T04:59:23;6.73;;;2.60;;
65063;SDS011;51654;51.452;6.644;2023-08-08T05:01:50;3.23;;;3.10;;
65063;SDS011;51654;51.452;6.644;2023-08-08T05:04:18;7.40;;;3.03;;
65063;SDS011;51654;51.452;6.644;2023-08-08T05:06:45;12.07;;;3.00;;
65063;SDS011;51654;51.452;6.644;2023-08-08T05:09:12;8.97;;;3.60;;
65063;SDS011;51654;51.452;6.644;2023-08-08T05:11:40;4.60;;;4.10;;
65063;SDS011;51654;51.452;6.644;2023-08-08T05:14:07;9.90;;;3.77;;
65063;SDS011;51654;51.452;6.644;2023-08-08T05:16:34;3.43;;;3.07;;
65063;SDS011;51654;51.452;6.644;2023-08-08T05:19:02;8.13;;;3.67;;
65063;SDS011;51654;51.452;6.644;2023-08-08T05:21:29;4.70;;;3.33;;
65063;SDS011;51654;51.452;6.644;2023-08-08T05:23:57;4.10;;;3.47;;
65063;SDS011;51654;51.452;6.644;2023-08-08T05:26:24;6.60;;;3.47;;
65063;SDS011;51654;51.452;6.644;2023-08-08T05:28:51;7.80;;;3.67;;
65063;SDS011;51654;51.452;6.644;2023-08-08T05:31:19;4.00;;;3.70;;
65063;SDS011;51654;51.452;6.644;2023-08-08T05:33:47;7.97;;;4.23;;
65063;SDS011;51654;51.452;6.644;2023-08-08T05:36:15;8.40;;;4.03;;
65063;SDS011;51654;51.452;6.644;2023-08-08T05:38:42;11.23;;;6.07;;
65063;SDS011;51654;51.452;6.644;2023-08-08T05:41:09;9.17;;;4.20;;
65063;SDS011;51654;51.452;6.644;2023-08-08T05:43:37;9.50;;;5.20;;
65063;SDS011;51654;51.452;6.644;2023-08-08T05:46:04;6.50;;;5.27;;
65063;SDS011;51654;51.452;6.644;2023-08-08T05:48:32;17.27;;;4.33;;
65063;SDS011;51654;51.452;6.644;2023-08-08T05:50:59;7.50;;;5.10;;
65063;SDS011;51654;51.452;6.644;2023-08-08T05:53:29;9.77;;;5.97;;
65063;SDS011;51654;51.452;6.644;2023-08-08T05:55:56;9.70;;;5.13;;
65063;SDS011;51654;51.452;6.644;2023-08-08T05:58:24;10.93;;;6.63;;
65063;SDS011;51654;51.452;6.644;2023-08-08T06:00:51;7.93;;;5.47;;
65063;SDS011;51654;51.452;6.644;2023-08-08T06:03:19;16.63;;;5.47;;
65063;SDS011;51654;51.452;6.644;2023-08-08T06:05:46;16.57;;;5.40;;
